Main page
Satellite images 15-day forecastsClimateMarine weather Cyclones Lightning AirportsFAQ Newsletter About
Weather : Europe Africa North America South America Asia Australia-Oceania Others
Languages Contact

Bordeaux, France

Merignac

latitude: 44-50N, longitude: 000-42W, elevation: 49 m


METAR: LFBD 300200Z AUTO 00000KT 9999 0150 R23/P2000 R05/0650U R29/P2000 BCFG NSC 13/12 Q1021
short-TAF: out of date (50970 hours)
long-TAF: LFBD 300043Z 3000/3106 01005KT CAVOK TEMPO 3000/3006 0500 BCFG TEMPO 3014/3020 33008KT

Time: 04:09 (02:09 UTC)

Current weather observation

The report was made 8 minutes ago, at 02:00 UTC  
Wind calm
Temperature 13°C
Humidity 94%
Pressure 1021 hPa
Visibility 0150 m
patches of fog

Change units

Forecast

The report was made 1 hour and 19 minutes ago, at 00:50 UTC  
Forecast valid from 30 at 00 UTC to 31 at 06 UTC
Wind 05 kt from the North
Visibility 10 km or more
no clouds below 1500 m and no cumulonimbus
Temporary
from 30 at 00 UTC to 30 at 06 UTC
Visibility 0500 m
patches of fog
Temporary
from 30 at 14 UTC to 30 at 20 UTC
Wind 08 kt from the North/Northwest
The information on this site is subject to a disclaimer
Weather : Europe Africa North America South America Asia Australia-Oceania Others
Satellite images 15-day forecastsClimateMarine weather Cyclones Lightning AirportsFAQ Languages Contact Newsletter About